Saint Mary, Montana
Current Conditions -  °F | °C
As of 1:56 PM on Saturday 25 Oct 2014 (Local Time) from KCTB Reporting Station
Clear Clear  
Wind Chill: 54°   Ceiling: Unl
Heat Index: 54°   Visibility: 10mi
Dew Point: 38°   Wind: 13mph
Humidity: 55%   Direction: 150°SSE
Pressure: 29.77"   Gusts: NA
Location:  48.5484°N, 112.952°W
Report Text: KCTB 251956Z AUTO 15011KT 10SM CLR 12/03 A2977 RMK AO2 SLP080 T01220033
Loading
Personal Weather Stations






























Interactive Weather Map New forecast layout! Learn more

10-Day Weather Forecast

Advertisements
Track Severe Weather on mobile